createdAt,value
2019-04-07T00:00:43.650Z,100121.16
2019-04-07T00:03:10.704Z,100123.52
2019-04-07T00:05:37.811Z,100123.52
2019-04-07T00:08:04.609Z,100121.77
2019-04-07T00:10:31.576Z,100126.59
2019-04-07T00:12:58.270Z,100125.47
2019-04-07T00:15:25.821Z,100124.30
2019-04-07T00:17:53.203Z,100124.33
2019-04-07T00:20:19.932Z,100116.92
2019-04-07T00:22:46.732Z,100122.32
2019-04-07T00:25:13.627Z,100115.09
2019-04-07T00:27:40.488Z,100114.91
2019-04-07T00:30:07.634Z,100115.41
2019-04-07T00:32:35.039Z,100116.16
2019-04-07T00:35:02.114Z,100113.38
2019-04-07T00:37:31.155Z,100109.05
2019-04-07T00:39:57.978Z,100105.47
2019-04-07T00:42:24.805Z,100109.69
2019-04-07T00:44:51.518Z,100099.89
2019-04-07T00:47:18.575Z,100106.15
2019-04-07T00:49:45.483Z,100105.50
2019-04-07T00:52:13.994Z,100102.21
2019-04-07T00:54:40.923Z,100103.96
2019-04-07T00:57:07.538Z,100107.23
2019-04-07T00:59:34.209Z,100107.03
2019-04-07T01:02:02.575Z,100110.92
2019-04-07T01:04:29.318Z,100111.78
2019-04-07T01:06:56.078Z,100110.84
2019-04-07T01:09:23.326Z,100111.33
2019-04-07T01:11:50.740Z,100107.39
2019-04-07T01:14:18.191Z,100110.08
2019-04-07T01:16:45.632Z,100119.13
2019-04-07T01:19:12.454Z,100116.36
2019-04-07T01:21:39.197Z,100117.74
2019-04-07T01:24:06.524Z,100116.20
2019-04-07T01:26:33.972Z,100119.67
2019-04-07T01:29:00.613Z,100116.60
2019-04-07T01:31:27.588Z,100119.81
2019-04-07T01:33:54.505Z,100112.38
2019-04-07T01:36:21.611Z,100111.80
2019-04-07T01:38:48.973Z,100116.60
2019-04-07T01:41:22.868Z,100117.78
2019-04-07T01:44:12.146Z,100114.89
2019-04-07T01:46:45.915Z,100115.47
2019-04-07T01:49:19.412Z,100112.70
2019-04-07T01:52:05.879Z,100110.48
2019-04-07T01:54:56.823Z,100111.11
2019-04-07T01:57:31.037Z,100110.48
2019-04-07T02:00:26.557Z,100112.59
2019-04-07T02:03:18.789Z,100115.75
2019-04-07T02:06:04.682Z,100115.36
2019-04-07T02:08:54.987Z,100116.23
2019-04-07T02:11:40.335Z,100117.88
2019-04-07T02:14:25.530Z,100115.92
2019-04-07T02:17:10.806Z,100110.84
2019-04-07T02:19:56.001Z,100113.66
2019-04-07T02:22:57.437Z,100120.84
2019-04-07T02:25:42.807Z,100107.76
2019-04-07T02:28:19.713Z,100115.76
2019-04-07T02:30:56.145Z,100108.46
2019-04-07T02:33:52.402Z,100114.59
2019-04-07T02:36:54.085Z,100110.56
2019-04-07T02:39:36.877Z,100102.57
2019-04-07T02:42:39.469Z,100111.42
2019-04-07T02:45:32.413Z,100111.81
2019-04-07T02:48:18.091Z,100108.05
2019-04-07T02:50:53.555Z,100112.78
2019-04-07T02:53:41.016Z,100109.30
2019-04-07T02:56:23.746Z,100113.24
2019-04-07T02:59:10.538Z,100116.79
2019-04-07T03:01:52.805Z,100119.30
2019-04-07T03:04:51.600Z,100118.04
2019-04-07T03:07:32.496Z,100118.60
2019-04-07T03:10:17.086Z,100119.84
2019-04-07T03:12:58.803Z,100117.05
2019-04-07T03:15:39.333Z,100110.23
2019-04-07T03:18:26.925Z,100112.27
2019-04-07T03:21:01.226Z,100111.69
2019-04-07T03:23:47.795Z,100109.81
2019-04-07T03:26:41.207Z,100110.39
2019-04-07T03:29:27.550Z,100113.16
2019-04-07T03:32:06.216Z,100112.66
2019-04-07T03:34:48.993Z,100107.88
2019-04-07T03:37:42.991Z,100115.16
2019-04-07T03:40:18.330Z,100117.45
2019-04-07T03:42:55.377Z,100121.40
2019-04-07T03:45:57.286Z,100112.84
2019-04-07T03:48:29.091Z,100113.53
2019-04-07T03:51:11.037Z,100117.09
2019-04-07T03:54:07.206Z,100112.08
2019-04-07T03:56:52.987Z,100116.09
2019-04-07T03:59:27.527Z,100114.43
2019-04-07T04:02:20.173Z,100113.19
2019-04-07T04:05:12.850Z,100117.52
2019-04-07T04:08:00.978Z,100114.61
2019-04-07T04:10:36.700Z,100117.11
2019-04-07T04:13:32.717Z,100109.41
2019-04-07T04:16:10.432Z,100118.66
2019-04-07T04:18:37.636Z,100113.95
2019-04-07T04:21:04.538Z,100113.75
2019-04-07T04:23:31.703Z,100111.91
2019-04-07T04:25:59.018Z,100115.56
2019-04-07T04:28:27.363Z,100120.82
2019-04-07T04:30:54.204Z,100120.34
2019-04-07T04:33:20.923Z,100120.94
2019-04-07T04:35:48.129Z,100124.56
2019-04-07T04:38:15.804Z,100125.60
2019-04-07T04:40:42.877Z,100128.78
2019-04-07T04:43:10.372Z,100124.09
2019-04-07T04:45:37.137Z,100127.63
2019-04-07T04:48:04.465Z,100129.55
2019-04-07T04:50:31.829Z,100134.63
2019-04-07T04:52:59.787Z,100134.16
2019-04-07T04:55:26.639Z,100132.41
2019-04-07T04:57:53.348Z,100131.92
2019-04-07T05:00:20.342Z,100133.86
2019-04-07T05:02:48.315Z,100137.22
2019-04-07T05:05:15.102Z,100139.27
2019-04-07T05:07:54.036Z,100134.45
2019-04-07T05:10:10.566Z,100137.42
2019-04-07T05:12:37.920Z,100139.92
2019-04-07T05:15:05.459Z,100141.29
2019-04-07T05:17:33.570Z,100145.30
2019-04-07T05:20:00.309Z,100148.00
2019-04-07T05:22:27.021Z,100151.75
2019-04-07T05:24:53.981Z,100154.16
2019-04-07T05:27:20.749Z,100151.12
2019-04-07T05:29:47.850Z,100155.61
2019-04-07T05:32:14.614Z,100160.51
2019-04-07T05:34:42.395Z,100164.47
2019-04-07T05:37:09.876Z,100166.19
2019-04-07T05:39:37.209Z,100169.75
2019-04-07T05:42:04.657Z,100172.37
2019-04-07T05:44:32.193Z,100176.05
2019-04-07T05:46:59.054Z,100173.55
2019-04-07T05:49:25.820Z,100174.70
2019-04-07T05:51:52.497Z,100180.98
2019-04-07T05:54:20.744Z,100180.11
2019-04-07T05:56:47.694Z,100179.80
2019-04-07T05:59:14.791Z,100180.06
2019-04-07T06:01:43.474Z,100188.50
2019-04-07T06:04:15.483Z,100195.91
2019-04-07T06:06:41.770Z,100198.47
2019-04-07T06:09:08.324Z,100200.59
2019-04-07T06:11:36.154Z,100203.50
2019-04-07T06:14:03.211Z,100205.64
2019-04-07T06:16:29.958Z,100208.25
2019-04-07T06:18:56.638Z,100215.77
2019-04-07T06:21:23.489Z,100219.14
2019-04-07T06:23:50.786Z,100223.86
2019-04-07T06:26:17.716Z,100225.94
2019-04-07T06:28:49.009Z,100223.05
2019-04-07T06:31:14.010Z,100228.20
2019-04-07T06:33:41.480Z,100224.14
2019-04-07T06:36:08.366Z,100227.23
2019-04-07T06:38:38.232Z,100226.56
2019-04-07T06:41:03.810Z,100234.34
2019-04-07T06:43:30.488Z,100230.13
2019-04-07T06:46:07.220Z,100233.87
2019-04-07T06:48:38.003Z,100233.36
2019-04-07T06:51:12.181Z,100231.42
2019-04-07T06:53:50.459Z,100235.62
2019-04-07T06:56:35.564Z,100242.45
2019-04-07T06:59:15.305Z,100244.89
2019-04-07T07:01:59.183Z,100244.89
2019-04-07T07:04:45.827Z,100249.38
2019-04-07T07:07:29.068Z,100249.38
2019-04-07T07:10:02.515Z,100254.88
2019-04-07T07:12:43.875Z,100254.17
2019-04-07T07:15:34.545Z,100261.88
2019-04-07T07:18:13.265Z,100259.12
2019-04-07T07:21:03.777Z,100260.67
2019-04-07T07:23:36.426Z,100265.70
2019-04-07T07:26:04.210Z,100265.70
2019-04-07T07:28:31.565Z,100262.74
2019-04-07T07:30:58.887Z,100262.23
2019-04-07T07:33:26.965Z,100268.99
2019-04-07T07:35:53.847Z,100268.99
2019-04-07T07:38:20.514Z,100274.41
2019-04-07T07:40:47.789Z,100270.77
2019-04-07T07:43:15.960Z,100269.52
2019-04-07T07:45:46.212Z,100280.13
2019-04-07T07:48:12.033Z,100279.67
2019-04-07T07:50:40.423Z,100281.25
2019-04-07T07:53:07.954Z,100278.05
2019-04-07T07:55:37.564Z,100279.62
2019-04-07T07:58:04.065Z,100284.09
2019-04-07T08:00:30.990Z,100279.45
2019-04-07T08:02:58.248Z,100281.03
2019-04-07T08:05:29.826Z,100279.42
2019-04-07T08:07:54.087Z,100284.64
2019-04-07T08:10:23.248Z,100287.14
2019-04-07T08:12:49.706Z,100291.89
2019-04-07T08:15:17.066Z,100293.77
2019-04-07T08:17:43.888Z,100294.53
2019-04-07T08:20:12.028Z,100292.25
2019-04-07T08:22:43.167Z,100300.45
2019-04-07T08:25:08.704Z,100302.20
2019-04-07T08:27:35.590Z,100301.89
2019-04-07T08:30:03.816Z,100299.17
2019-04-07T08:32:32.208Z,100299.91
2019-04-07T08:35:02.114Z,100302.33
2019-04-07T08:37:28.582Z,100312.03
2019-04-07T08:39:56.976Z,100310.30
2019-04-07T08:42:25.180Z,100313.23
2019-04-07T08:44:52.035Z,100304.53
2019-04-07T08:47:22.167Z,100312.89
2019-04-07T08:49:49.490Z,100310.01
2019-04-07T08:52:17.443Z,100313.12
2019-04-07T08:54:47.763Z,100308.39
2019-04-07T08:57:12.727Z,100309.81
2019-04-07T08:59:41.886Z,100313.16
2019-04-07T09:02:08.675Z,100315.47
2019-04-07T09:04:36.635Z,100307.63
2019-04-07T09:07:04.384Z,100309.84
2019-04-07T09:09:35.991Z,100311.36
2019-04-07T09:12:00.586Z,100314.48
2019-04-07T09:14:27.313Z,100315.00
2019-04-07T09:17:30.874Z,100314.59
2019-04-07T09:20:08.479Z,100317.06
2019-04-07T09:22:37.946Z,100312.50
2019-04-07T09:25:40.524Z,100315.11
2019-04-07T09:28:31.497Z,100319.87
2019-04-07T09:31:14.683Z,100318.70
2019-04-07T09:33:50.306Z,100313.66
2019-04-07T09:36:36.383Z,100322.60
2019-04-07T09:39:12.381Z,100320.78
2019-04-07T09:42:05.724Z,100322.87
2019-04-07T09:44:40.206Z,100328.13
2019-04-07T09:47:39.128Z,100325.48
2019-04-07T09:50:35.125Z,100320.61
2019-04-07T09:53:19.656Z,100321.80
2019-04-07T09:56:08.823Z,100322.73
2019-04-07T09:59:03.595Z,100321.36
2019-04-07T10:01:59.447Z,100325.70
2019-04-07T10:04:38.544Z,100313.39
2019-04-07T10:07:20.593Z,100320.53
2019-04-07T10:10:16.053Z,100318.27
2019-04-07T10:13:01.949Z,100317.70
2019-04-07T10:15:51.303Z,100316.44
2019-04-07T10:18:36.896Z,100318.70
2019-04-07T10:21:24.082Z,100319.22
2019-04-07T10:23:59.731Z,100313.45
2019-04-07T10:26:36.098Z,100311.82
2019-04-07T10:29:18.688Z,100311.95
2019-04-07T10:32:04.590Z,100312.45
2019-04-07T10:34:44.971Z,100246.94
2019-04-07T10:37:20.024Z,100320.11
2019-04-07T10:39:57.322Z,100315.14
2019-04-07T10:42:49.150Z,100305.83
2019-04-07T10:45:23.467Z,100301.75
2019-04-07T10:48:25.911Z,100303.82
2019-04-07T10:51:13.082Z,100307.58
2019-04-07T10:53:56.130Z,100300.13
2019-04-07T10:56:51.758Z,100301.03
2019-04-07T10:59:34.242Z,100299.89
2019-04-07T11:02:27.535Z,100291.83
2019-04-07T11:05:16.962Z,100299.22
2019-04-07T11:08:02.468Z,100295.96
2019-04-07T11:10:39.911Z,100297.41
2019-04-07T11:13:44.385Z,100294.22
2019-04-07T11:16:43.149Z,100289.02
2019-04-07T11:19:28.600Z,100290.84
2019-04-07T11:22:15.039Z,100282.59
2019-04-07T11:24:50.160Z,100282.16
2019-04-07T11:27:39.277Z,100283.81
2019-04-07T11:30:28.881Z,100275.47
2019-04-07T11:33:11.751Z,100274.01
2019-04-07T11:35:51.017Z,100277.63
2019-04-07T11:38:29.943Z,100274.28
2019-04-07T11:41:21.599Z,100277.58
2019-04-07T11:44:13.826Z,100274.58
2019-04-07T11:46:50.888Z,100274.26
2019-04-07T11:49:44.724Z,100278.45
2019-04-07T11:52:20.091Z,100275.33
2019-04-07T11:54:55.555Z,100267.45
2019-04-07T11:57:31.998Z,100272.94
2019-04-07T12:00:17.282Z,100275.48
2019-04-07T12:03:03.874Z,100275.91
2019-04-07T12:05:49.564Z,100281.76
2019-04-07T12:08:41.892Z,100274.97
2019-04-07T12:11:37.245Z,100273.83
2019-04-07T12:14:17.979Z,100279.84
2019-04-07T12:17:06.921Z,100274.89
2019-04-07T12:19:40.767Z,100273.80
2019-04-07T12:22:18.310Z,100270.25
2019-04-07T12:25:10.567Z,100270.59
2019-04-07T12:27:56.738Z,100273.23
2019-04-07T12:30:39.153Z,100276.25
2019-04-07T12:33:12.232Z,100268.78
2019-04-07T12:35:44.906Z,100264.52
2019-04-07T12:38:43.231Z,100268.14
2019-04-07T12:41:34.716Z,100271.76
2019-04-07T12:44:15.926Z,100261.97
2019-04-07T12:47:01.694Z,100269.65
2019-04-07T12:50:04.090Z,100263.76
2019-04-07T12:52:37.703Z,100267.92
2019-04-07T12:55:23.012Z,100269.62
2019-04-07T12:58:27.772Z,100266.00
2019-04-07T13:01:15.237Z,100271.66
2019-04-07T13:04:04.666Z,100264.44
2019-04-07T13:06:46.938Z,100259.94
2019-04-07T13:09:36.590Z,100256.70
2019-04-07T13:12:29.639Z,100263.88
2019-04-07T13:15:10.993Z,100261.50
2019-04-07T13:17:53.391Z,100264.88
2019-04-07T13:20:35.506Z,100269.66
2019-04-07T13:23:13.611Z,100258.74
2019-04-07T13:25:59.013Z,100267.59
2019-04-07T13:28:35.911Z,100264.88
2019-04-07T13:31:18.071Z,100270.06
2019-04-07T13:34:04.207Z,100257.17
2019-04-07T13:36:51.661Z,100260.67
2019-04-07T13:39:44.954Z,100253.63
2019-04-07T13:42:20.821Z,100252.62
2019-04-07T13:44:55.993Z,100249.69
2019-04-07T13:47:32.012Z,100253.53
2019-04-07T13:50:12.805Z,100254.53
2019-04-07T13:53:02.947Z,100252.53
2019-04-07T13:55:49.864Z,100255.41
2019-04-07T13:58:54.434Z,100258.55
2019-04-07T14:01:59.332Z,100262.87
2019-04-07T14:04:43.524Z,100263.17
2019-04-07T14:07:19.592Z,100261.47
2019-04-07T14:10:04.396Z,100259.44
2019-04-07T14:12:50.095Z,100253.52
2019-04-07T14:15:35.909Z,100256.91
2019-04-07T14:18:11.224Z,100255.91
2019-04-07T14:20:44.111Z,100254.80
2019-04-07T14:23:29.803Z,100250.76
2019-04-07T14:26:22.289Z,100261.34
2019-04-07T14:29:15.261Z,100251.05
2019-04-07T14:31:51.999Z,100253.03
2019-04-07T14:34:37.265Z,100257.98
2019-04-07T14:37:16.328Z,100254.26
2019-04-07T14:39:58.761Z,100251.70
2019-04-07T14:42:38.203Z,100255.91
2019-04-07T14:45:34.139Z,100251.95
2019-04-07T14:48:13.410Z,100249.09
2019-04-07T14:51:13.236Z,100257.61
2019-04-07T14:53:58.711Z,100252.92
2019-04-07T14:56:44.173Z,100258.89
2019-04-07T14:59:28.423Z,100255.50
2019-04-07T15:02:00.024Z,100257.23
2019-04-07T15:04:36.724Z,100253.00
2019-04-07T15:07:21.762Z,100251.00
2019-04-07T15:09:53.503Z,100251.59
2019-04-07T15:12:31.693Z,100251.64
2019-04-07T15:14:58.959Z,100251.24
2019-04-07T15:17:26.415Z,100246.91
2019-04-07T15:19:53.798Z,100249.11
2019-04-07T15:22:24.811Z,100255.07
2019-04-07T15:24:49.550Z,100248.88
2019-04-07T15:27:17.516Z,100251.75
2019-04-07T15:29:46.781Z,100250.94
2019-04-07T15:32:13.716Z,100248.62
2019-04-07T15:34:42.526Z,100247.27
2019-04-07T15:37:10.618Z,100249.81
2019-04-07T15:39:38.560Z,100250.73
2019-04-07T15:42:07.017Z,100251.13
2019-04-07T15:44:34.661Z,100246.88
2019-04-07T15:47:01.844Z,100251.07
2019-04-07T15:49:29.532Z,100248.94
2019-04-07T15:51:57.217Z,100252.61
2019-04-07T15:54:25.321Z,100252.83
2019-04-07T15:56:52.831Z,100252.30
2019-04-07T15:59:20.600Z,100252.28
2019-04-07T16:01:47.685Z,100245.77
2019-04-07T16:04:14.352Z,100244.86
2019-04-07T16:06:41.880Z,100248.83
2019-04-07T16:09:22.415Z,100248.65
2019-04-07T16:11:42.351Z,100249.17
2019-04-07T16:14:13.234Z,100255.15
2019-04-07T16:16:38.346Z,100268.27
2019-04-07T16:19:05.542Z,100254.77
2019-04-07T16:21:33.142Z,100262.10
2019-04-07T16:24:00.001Z,100256.36
2019-04-07T16:26:30.144Z,100263.02
2019-04-07T16:28:56.256Z,100260.47
2019-04-07T16:31:25.176Z,100257.43
2019-04-07T16:33:51.883Z,100259.94
2019-04-07T16:36:19.602Z,100264.00
2019-04-07T16:38:46.554Z,100265.30
2019-04-07T16:41:14.169Z,100261.11
2019-04-07T16:43:42.049Z,100266.23
2019-04-07T16:46:09.934Z,100266.64
2019-04-07T16:48:40.147Z,100269.40
2019-04-07T16:51:08.154Z,100263.67
2019-04-07T16:53:37.919Z,100262.89
2019-04-07T16:56:05.303Z,100267.39
2019-04-07T16:58:35.393Z,100270.77
2019-04-07T17:01:01.338Z,100267.47
2019-04-07T17:03:28.958Z,100266.89
2019-04-07T17:05:59.001Z,100268.91
2019-04-07T17:08:25.842Z,100279.09
2019-04-07T17:10:54.578Z,100276.91
2019-04-07T17:13:30.583Z,100279.43
2019-04-07T17:15:52.662Z,100283.49
2019-04-07T17:18:39.765Z,100284.95
2019-04-07T17:21:12.734Z,100285.63
2019-04-07T17:23:39.730Z,100283.00
2019-04-07T17:26:08.083Z,100286.20
2019-04-07T17:28:35.747Z,100289.48
2019-04-07T17:31:02.802Z,100283.97
2019-04-07T17:33:30.682Z,100292.92
2019-04-07T17:35:59.241Z,100295.42
2019-04-07T17:38:33.649Z,100292.88
2019-04-07T17:41:01.005Z,100295.71
2019-04-07T17:43:53.250Z,100295.68
2019-04-07T17:46:34.089Z,100303.58
2019-04-07T17:49:14.711Z,100291.09
2019-04-07T17:52:10.950Z,100290.75
2019-04-07T17:54:52.503Z,100296.84
2019-04-07T17:57:41.599Z,100290.24
2019-04-07T18:00:32.131Z,100292.52
2019-04-07T18:03:11.113Z,100297.58
2019-04-07T18:06:02.349Z,100294.50
2019-04-07T18:09:03.971Z,100297.85
2019-04-07T18:12:01.913Z,100297.73
2019-04-07T18:14:33.114Z,100303.95
2019-04-07T18:17:13.009Z,100302.34
2019-04-07T18:19:55.828Z,100311.58
2019-04-07T18:22:29.840Z,100312.73
2019-04-07T18:25:18.643Z,100317.05
2019-04-07T18:28:16.403Z,100321.38
2019-04-07T18:31:15.331Z,100324.42
2019-04-07T18:33:55.097Z,100323.38
2019-04-07T18:36:41.455Z,100321.92
2019-04-07T18:39:27.644Z,100325.69
2019-04-07T18:42:04.102Z,100339.81
2019-04-07T18:44:57.465Z,100345.33
2019-04-07T18:47:44.727Z,100344.75
2019-04-07T18:50:30.742Z,100350.42
2019-04-07T18:53:29.378Z,100353.88
2019-04-07T18:56:29.181Z,100354.62
2019-04-07T18:59:28.072Z,100359.41
2019-04-07T19:02:16.595Z,100364.98
2019-04-07T19:05:05.190Z,100364.88
2019-04-07T19:07:52.854Z,100369.89
2019-04-07T19:10:36.695Z,100362.64
2019-04-07T19:13:29.954Z,100363.73
2019-04-07T19:16:19.041Z,100374.20
2019-04-07T19:18:54.357Z,100375.61
2019-04-07T19:21:53.664Z,100376.59
2019-04-07T19:24:34.641Z,100381.64
2019-04-07T19:27:22.032Z,100381.06
2019-04-07T19:30:07.457Z,100383.59
2019-04-07T19:32:52.620Z,100380.06
2019-04-07T19:35:40.805Z,100385.86
2019-04-07T19:38:21.019Z,100390.54
2019-04-07T19:41:11.185Z,100386.70
2019-04-07T19:43:44.640Z,100385.28
2019-04-07T19:46:37.000Z,100380.57
2019-04-07T19:49:14.659Z,100387.41
2019-04-07T19:51:48.301Z,100390.57
2019-04-07T19:54:31.470Z,100385.75
2019-04-07T19:57:23.733Z,100387.39
2019-04-07T20:00:22.224Z,100390.91
2019-04-07T20:02:55.331Z,100388.77
2019-04-07T20:05:43.921Z,100390.66
2019-04-07T20:08:20.802Z,100391.11
2019-04-07T20:11:22.172Z,100391.77
2019-04-07T20:14:04.353Z,100395.49
2019-04-07T20:16:59.942Z,100387.18
2019-04-07T20:19:58.117Z,100395.73
2019-04-07T20:22:56.043Z,100395.41
2019-04-07T20:25:46.172Z,100398.80
2019-04-07T20:28:30.270Z,100396.69
2019-04-07T20:31:19.452Z,100393.35
2019-04-07T20:34:07.659Z,100390.48
2019-04-07T20:36:58.134Z,100395.34
2019-04-07T20:39:47.737Z,100394.66
2019-04-07T20:42:25.726Z,100398.67
2019-04-07T20:45:15.344Z,100394.84
2019-04-07T20:48:00.111Z,100399.80
2019-04-07T20:50:42.294Z,100396.58
2019-04-07T20:53:23.806Z,100397.77
2019-04-07T20:56:27.406Z,100394.62
2019-04-07T20:59:16.505Z,100397.06
2019-04-07T21:02:23.253Z,100396.91
2019-04-07T21:05:10.158Z,100404.78
2019-04-07T21:07:57.817Z,100393.52
2019-04-07T21:10:35.991Z,100397.30
2019-04-07T21:13:19.357Z,100397.52
2019-04-07T21:16:04.560Z,100393.43
2019-04-07T21:18:50.903Z,100395.01
2019-04-07T21:21:46.731Z,100392.20
2019-04-07T21:24:31.675Z,100396.05
2019-04-07T21:27:08.093Z,100395.80
2019-04-07T21:30:03.021Z,100396.70
2019-04-07T21:32:48.631Z,100397.63
2019-04-07T21:35:47.929Z,100402.09
2019-04-07T21:38:31.405Z,100399.61
2019-04-07T21:41:16.817Z,100409.33
2019-04-07T21:44:09.205Z,100407.79
2019-04-07T21:46:55.447Z,100342.86
2019-04-07T21:49:39.918Z,100407.23
2019-04-07T21:52:29.301Z,100408.25
2019-04-07T21:55:19.447Z,100406.80
2019-04-07T21:57:57.547Z,100404.36
2019-04-07T22:00:43.341Z,100400.58
2019-04-07T22:03:49.881Z,100399.61
2019-04-07T22:06:35.973Z,100405.15
2019-04-07T22:09:14.765Z,100402.36
2019-04-07T22:11:41.866Z,100396.26
2019-04-07T22:14:10.344Z,100393.91
2019-04-07T22:16:38.271Z,100393.91
2019-04-07T22:19:10.274Z,100400.35
2019-04-07T22:21:34.147Z,100403.43
2019-04-07T22:24:01.933Z,100409.70
2019-04-07T22:26:29.619Z,100409.70
2019-04-07T22:28:59.513Z,100408.83
2019-04-07T22:31:29.026Z,100401.45
2019-04-07T22:33:59.177Z,100399.31
2019-04-07T22:36:25.291Z,100399.31
2019-04-07T22:38:56.495Z,100400.45
2019-04-07T22:41:20.638Z,100403.29
2019-04-07T22:43:50.275Z,100402.08
2019-04-07T22:46:21.335Z,100406.87
2019-04-07T22:48:44.742Z,100401.50
2019-04-07T22:51:13.383Z,100401.50
2019-04-07T22:53:40.266Z,100399.34
2019-04-07T22:56:08.567Z,100387.59
2019-04-07T22:58:36.106Z,100397.98
2019-04-07T23:01:03.146Z,100396.73
2019-04-07T23:03:29.935Z,100396.73
2019-04-07T23:05:57.519Z,100394.37
2019-04-07T23:08:24.428Z,100390.89
2019-04-07T23:10:51.197Z,100385.52
2019-04-07T23:13:18.011Z,100389.92
2019-04-07T23:15:46.098Z,100390.10
2019-04-07T23:18:13.714Z,100393.00
2019-04-07T23:20:40.498Z,100393.00
2019-04-07T23:23:07.243Z,100386.77
2019-04-07T23:25:34.346Z,100388.63
2019-04-07T23:28:01.215Z,100389.88
2019-04-07T23:30:29.093Z,100391.17
2019-04-07T23:32:55.784Z,100383.81
2019-04-07T23:35:22.574Z,100386.47
2019-04-07T23:37:49.251Z,100391.19
2019-04-07T23:40:16.358Z,100385.67
2019-04-07T23:42:44.647Z,100381.83
2019-04-07T23:45:12.345Z,100381.83
2019-04-07T23:47:39.346Z,100385.45
2019-04-07T23:50:07.262Z,100389.16
2019-04-07T23:52:33.943Z,100393.46
2019-04-07T23:55:00.648Z,100390.11
2019-04-07T23:57:27.527Z,100384.81
2019-04-07T23:59:56.134Z,100396.59
